Time;durP1;ratioP1;P1;durP2;ratioP2;P2;SDS_P1;SDS_P2;PMS_P1;PMS_P2;Temp;Humidity;BMP_temperature;BMP_pressure;BME280_temperature;BME280_humidity;BME280_pressure;Samples;Min_cycle;Max_cycle;Signal;HPM_P1;HPM_P2
2022/08/26 00:00:33;;;;;;;50.63;46.33;;;21.10;99.90;;;;;;5095750;27;20042;-83
2022/08/26 00:02:59;;;;;;;50.70;46.47;;;21.10;99.90;;;;;;5102929;27;20043;-83
2022/08/26 00:05:25;;;;;;;51.55;47.33;;;21.10;99.90;;;;;;5079411;27;20083;-82
2022/08/26 00:07:52;;;;;;;54.53;50.25;;;21.00;99.90;;;;;;5118389;27;20868;-81
2022/08/26 00:10:19;;;;;;;52.38;48.17;;;20.90;99.90;;;;;;5100101;27;20559;-80
2022/08/26 00:12:45;;;;;;;63.80;58.70;;;20.90;99.90;;;;;;5119463;27;20078;-80
2022/08/26 00:15:14;;;;;;;65.90;60.40;;;20.90;99.90;;;;;;5100443;27;20081;-80
2022/08/26 00:17:41;;;;;;;57.58;53.03;;;20.80;99.90;;;;;;5112666;27;20042;-80
2022/08/26 00:20:09;;;;;;;65.38;59.75;;;20.80;99.90;;;;;;5096749;27;20118;-80
2022/08/26 00:22:35;;;;;;;66.57;61.00;;;20.80;99.90;;;;;;5104622;27;20039;-80
2022/08/26 00:25:03;;;;;;;50.88;46.38;;;20.70;99.90;;;;;;5116974;27;20038;-80
2022/08/26 00:27:32;;;;;;;61.10;55.95;;;20.70;99.90;;;;;;5096389;27;20393;-80
2022/08/26 00:29:59;;;;;;;60.10;55.13;;;20.70;99.90;;;;;;5115063;27;20100;-80
2022/08/26 00:32:25;;;;;;;56.03;51.30;;;20.70;99.90;;;;;;5097763;27;20043;-80
2022/08/26 00:34:51;;;;;;;56.10;51.58;;;20.70;99.90;;;;;;5085967;27;20039;-81
2022/08/26 00:37:17;;;;;;;59.03;54.13;;;20.60;99.90;;;;;;5099378;27;20383;-80
2022/08/26 00:39:43;;;;;;;57.00;51.88;;;20.70;99.90;;;;;;5087251;27;20035;-80
2022/08/26 00:42:09;;;;;;;57.00;52.13;;;20.60;99.90;;;;;;5113246;27;20066;-80
2022/08/26 00:44:38;;;;;;;60.50;55.15;;;20.60;99.90;;;;;;5097107;27;20039;-81
2022/08/26 00:47:10;;;;;;;63.63;58.03;;;20.60;99.90;;;;;;5085392;27;20097;-80
2022/08/26 00:49:40;;;;;;;67.95;62.00;;;20.70;99.90;;;;;;5099976;27;20130;-80
2022/08/26 00:52:15;;;;;;;70.65;64.05;;;20.60;99.90;;;;;;5103905;27;20106;-80
2022/08/26 00:54:48;;;;;;;66.75;60.85;;;20.60;99.90;;;;;;5102732;27;20055;-82
2022/08/26 00:57:16;;;;;;;53.85;49.05;;;20.60;99.90;;;;;;5116262;27;20054;-83
2022/08/26 00:59:47;;;;;;;64.70;59.03;;;20.50;99.90;;;;;;5094372;27;20039;-82
2022/08/26 01:02:13;;;;;;;68.50;62.20;;;20.50;99.90;;;;;;5101933;27;20043;-81
2022/08/26 01:04:40;;;;;;;71.10;64.43;;;20.60;99.90;;;;;;5086552;27;20031;-82
2022/08/26 01:07:09;;;;;;;58.03;52.17;;;20.60;99.90;;;;;;5115408;27;20050;-83
2022/08/26 01:09:35;;;;;;;63.17;57.63;;;20.60;99.90;;;;;;5081317;27;20122;-80
2022/08/26 01:12:05;;;;;;;60.60;54.85;;;20.60;99.90;;;;;;5102235;27;20046;-81
2022/08/26 01:14:34;;;;;;;58.90;53.30;;;20.60;99.90;;;;;;5106843;27;20038;-82
2022/08/26 01:17:02;;;;;;;62.15;56.05;;;20.60;99.90;;;;;;5120941;27;20375;-82
2022/08/26 01:19:42;;;;;;;55.42;49.70;;;20.60;99.90;;;;;;5100037;27;20115;-82
2022/08/26 01:22:14;;;;;;;;;;;20.60;99.90;;;;;;5115214;27;20043;-82
2022/08/26 01:24:41;;;;;;;53.40;48.53;;;20.60;99.90;;;;;;5117626;27;20373;-82
2022/08/26 01:27:09;;;;;;;58.65;52.65;;;20.60;99.90;;;;;;5105118;27;20039;-81
2022/08/26 01:29:38;;;;;;;51.53;46.70;;;20.60;99.90;;;;;;5098035;27;20035;-80
2022/08/26 01:32:10;;;;;;;52.67;47.88;;;20.60;99.90;;;;;;5121445;27;20043;-80
2022/08/26 01:34:38;;;;;;;50.50;45.50;;;20.70;99.90;;;;;;5100307;27;20047;-80
2022/08/26 01:37:14;;;;;;;48.70;44.30;;;20.70;99.90;;;;;;5120912;27;20126;-80
2022/08/26 01:39:42;;;;;;;52.88;47.38;;;20.70;99.90;;;;;;5118263;27;20726;-81
2022/08/26 01:42:11;;;;;;;48.72;43.85;;;20.70;99.90;;;;;;5100250;27;20738;-81
2022/08/26 01:44:45;;;;;;;45.88;41.35;;;20.70;99.90;;;;;;5102287;27;20168;-81
2022/08/26 01:47:15;;;;;;;46.13;41.40;;;20.70;99.90;;;;;;5102620;27;20452;-80
2022/08/26 01:49:43;;;;;;;48.80;43.60;;;20.70;99.90;;;;;;5127885;27;20051;-80
2022/08/26 01:52:15;;;;;;;47.28;42.67;;;20.70;99.90;;;;;;5106553;27;20038;-81
2022/08/26 01:54:44;;;;;;;42.97;38.75;;;20.70;99.90;;;;;;5097041;27;20059;-81
2022/08/26 01:57:09;;;;;;;41.97;37.70;;;20.70;99.90;;;;;;5125403;27;20046;-81
2022/08/26 01:59:35;;;;;;;40.05;36.03;;;20.70;99.90;;;;;;5085567;27;20051;-81
2022/08/26 02:02:01;;;;;;;43.65;38.95;;;20.70;99.90;;;;;;5088512;27;20042;-81
2022/08/26 02:04:33;;;;;;;42.78;38.55;;;20.70;99.90;;;;;;5097167;27;20047;-81
2022/08/26 02:07:03;;;;;;;42.10;37.90;;;20.70;99.90;;;;;;5120904;27;20583;-81
2022/08/26 02:09:29;;;;;;;39.33;35.53;;;20.80;99.90;;;;;;5114125;27;20054;-80
2022/08/26 02:11:55;;;;;;;43.03;38.88;;;20.70;99.90;;;;;;5104109;27;20700;-81
2022/08/26 02:14:25;;;;;;;41.13;36.90;;;20.70;99.90;;;;;;5113047;27;20104;-82
2022/08/26 02:16:54;;;;;;;40.38;36.25;;;20.80;99.90;;;;;;5115906;27;20414;-82
2022/08/26 02:19:25;;;;;;;42.72;38.75;;;20.80;99.90;;;;;;5102502;27;20047;-82
2022/08/26 02:21:52;;;;;;;42.60;38.30;;;20.70;99.90;;;;;;5099624;27;20046;-82
2022/08/26 02:24:25;;;;;;;43.17;38.83;;;20.70;99.90;;;;;;5086846;27;20039;-81
2022/08/26 02:26:51;;;;;;;42.67;38.28;;;20.70;99.90;;;;;;5103028;27;20104;-81
2022/08/26 02:29:35;;;;;;;43.08;38.72;;;20.70;99.90;;;;;;5082254;27;20247;-81
2022/08/26 02:32:01;;;;;;;40.38;36.53;;;20.70;99.90;;;;;;5101480;27;20070;-80
2022/08/26 02:34:30;;;;;;;38.03;32.85;;;20.70;99.90;;;;;;5085734;27;20071;-79
2022/08/26 02:36:58;;;;;;;38.67;34.97;;;20.60;99.90;;;;;;5117063;27;20572;-80
2022/08/26 02:39:24;;;;;;;38.20;34.08;;;20.60;99.90;;;;;;5126057;27;20287;-79
2022/08/26 02:41:50;;;;;;;37.35;33.47;;;20.60;99.90;;;;;;5116653;27;20498;-81
2022/08/26 02:44:16;;;;;;;36.90;33.05;;;20.60;99.90;;;;;;5106992;27;20039;-80
2022/08/26 02:46:42;;;;;;;35.47;31.92;;;20.60;99.90;;;;;;5118268;27;20046;-79
2022/08/26 02:49:08;;;;;;;36.85;32.95;;;20.60;99.90;;;;;;5086556;27;20054;-80
2022/08/26 02:51:34;;;;;;;38.05;34.13;;;20.60;99.90;;;;;;5098245;27;20125;-80
2022/08/26 02:54:00;;;;;;;37.45;33.50;;;20.60;99.90;;;;;;5114561;27;20063;-80
2022/08/26 02:56:26;;;;;;;37.10;33.28;;;20.60;99.90;;;;;;5089444;27;20050;-79
2022/08/26 02:58:52;;;;;;;35.13;30.33;;;20.60;99.90;;;;;;5109295;27;20397;-79
2022/08/26 03:01:23;;;;;;;34.33;30.73;;;20.60;99.90;;;;;;5120183;27;20042;-79
2022/08/26 03:03:49;;;;;;;33.72;30.13;;;20.60;99.90;;;;;;5104719;27;20660;-79
2022/08/26 03:06:15;;;;;;;32.20;28.80;;;20.60;99.90;;;;;;5089277;27;20102;-80
2022/08/26 03:08:41;;;;;;;28.95;25.92;;;20.50;99.90;;;;;;5098539;27;20054;-79
2022/08/26 03:11:07;;;;;;;31.98;27.52;;;20.60;99.90;;;;;;5115791;27;20046;-80
2022/08/26 03:13:40;;;;;;;32.83;26.55;;;20.60;99.90;;;;;;5117176;27;20498;-79
2022/08/26 03:16:09;;;;;;;31.67;28.30;;;20.60;99.90;;;;;;5126429;27;20051;-81
2022/08/26 03:18:38;;;;;;;28.35;25.30;;;20.60;99.90;;;;;;5104674;27;20042;-79
2022/08/26 03:21:11;;;;;;;33.70;29.88;;;20.60;99.90;;;;;;5092897;27;20035;-80
2022/08/26 03:23:39;;;;;;;34.97;29.05;;;20.60;99.90;;;;;;5112956;27;20049;-80
2022/08/26 03:26:06;;;;;;;32.13;27.42;;;20.60;99.90;;;;;;5116801;27;20416;-79
2022/08/26 03:28:32;;;;;;;33.60;29.20;;;20.60;99.90;;;;;;5100694;27;20035;-81
2022/08/26 03:30:58;;;;;;;33.40;29.80;;;20.60;99.90;;;;;;5085985;27;20439;-80
2022/08/26 03:33:25;;;;;;;34.53;29.65;;;20.60;99.90;;;;;;5091837;27;20552;-80
2022/08/26 03:35:52;;;;;;;34.80;29.58;;;20.60;99.90;;;;;;5098848;27;20045;-80
2022/08/26 03:38:19;;;;;;;31.17;26.42;;;20.60;99.90;;;;;;5097651;27;20042;-80
2022/08/26 03:40:45;;;;;;;30.10;26.13;;;20.60;99.90;;;;;;5118781;27;20164;-77
2022/08/26 03:43:12;;;;;;;30.40;26.52;;;20.60;99.90;;;;;;5102198;27;20050;-77
2022/08/26 03:45:39;;;;;;;28.88;23.38;;;20.60;99.90;;;;;;5105901;27;20039;-79
2022/08/26 03:48:06;;;;;;;27.95;23.73;;;20.60;99.90;;;;;;5101986;27;20066;-79
2022/08/26 03:50:32;;;;;;;26.80;23.52;;;20.60;99.90;;;;;;5116428;27;20097;-78
2022/08/26 03:52:58;;;;;;;26.92;22.52;;;20.60;99.90;;;;;;5118151;27;20043;-79
2022/08/26 03:55:30;;;;;;;27.90;22.05;;;20.60;99.90;;;;;;5097995;27;20042;-79
2022/08/26 03:57:57;;;;;;;24.45;20.40;;;20.60;99.90;;;;;;5115346;27;20434;-79
2022/08/26 04:00:23;;;;;;;29.02;22.63;;;20.60;99.90;;;;;;5098926;27;20051;-77
2022/08/26 04:02:49;;;;;;;24.95;20.77;;;20.60;99.90;;;;;;5097492;27;20035;-79
2022/08/26 04:05:18;;;;;;;26.15;20.80;;;20.60;99.90;;;;;;5087573;27;20407;-78
2022/08/26 04:07:45;;;;;;;26.00;19.92;;;20.60;99.90;;;;;;5113240;27;20488;-79
2022/08/26 04:10:13;;;;;;;26.85;20.00;;;20.60;99.90;;;;;;5103465;27;20042;-80
2022/08/26 04:12:40;;;;;;;22.58;18.20;;;20.50;99.90;;;;;;5106320;27;20950;-80
2022/08/26 04:15:13;;;;;;;21.17;17.17;;;20.50;99.90;;;;;;5111491;27;20027;-80
2022/08/26 04:17:39;;;;;;;21.88;17.73;;;20.50;99.90;;;;;;5096048;27;20054;-81
2022/08/26 04:20:06;;;;;;;24.65;19.10;;;20.50;99.90;;;;;;5101192;27;20043;-80
2022/08/26 04:22:33;;;;;;;26.15;18.55;;;20.50;99.90;;;;;;5095915;27;20493;-80
2022/08/26 04:24:58;;;;;;;27.88;17.52;;;20.50;99.90;;;;;;5115612;27;20076;-80
2022/08/26 04:27:24;;;;;;;25.70;16.48;;;20.50;99.90;;;;;;5080686;27;20050;-80
2022/08/26 04:29:50;;;;;;;23.08;16.00;;;20.50;99.90;;;;;;5120582;27;20042;-80
2022/08/26 04:32:16;;;;;;;22.70;17.73;;;20.50;99.90;;;;;;5108070;27;20038;-81
2022/08/26 04:34:42;;;;;;;23.15;16.98;;;20.50;99.90;;;;;;5088568;27;20178;-81
2022/08/26 04:37:09;;;;;;;22.00;18.27;;;20.60;99.90;;;;;;5111233;27;20051;-79
2022/08/26 04:39:35;;;;;;;23.52;17.52;;;20.50;99.90;;;;;;5107193;27;20131;-80
2022/08/26 04:42:02;;;;;;;24.98;18.15;;;20.50;99.90;;;;;;5077237;27;20106;-82
2022/08/26 04:44:29;;;;;;;24.70;18.27;;;20.50;99.90;;;;;;5101385;27;20043;-79
2022/08/26 04:46:55;;;;;;;21.95;16.00;;;20.50;99.90;;;;;;5128692;27;20053;-83
2022/08/26 04:49:22;;;;;;;24.48;16.05;;;20.50;99.90;;;;;;5100270;27;20031;-81
2022/08/26 04:51:51;;;;;;;23.35;16.92;;;20.50;99.90;;;;;;5089732;27;20051;-78
2022/08/26 04:54:17;;;;;;;26.35;17.65;;;20.50;99.90;;;;;;5089156;27;20140;-80
2022/08/26 04:56:44;;;;;;;23.95;17.45;;;20.50;99.90;;;;;;5104421;27;20201;-79
2022/08/26 04:59:14;;;;;;;20.27;14.93;;;20.50;99.90;;;;;;5117329;27;20039;-82
2022/08/26 05:01:50;;;;;;;22.40;18.10;;;20.50;99.90;;;;;;5097940;27;20101;-81
2022/08/26 05:04:17;;;;;;;20.38;15.00;;;20.50;99.90;;;;;;5100933;27;20074;-81
2022/08/26 05:06:43;;;;;;;19.23;14.27;;;20.50;99.90;;;;;;5122512;27;20047;-82
2022/08/26 05:09:09;;;;;;;19.98;16.13;;;20.50;99.90;;;;;;5086855;27;20546;-81
2022/08/26 05:11:36;;;;;;;18.10;14.77;;;20.50;99.90;;;;;;5120687;27;20049;-81
2022/08/26 05:14:02;;;;;;;21.52;14.90;;;20.50;99.90;;;;;;5105160;27;20031;-81
2022/08/26 05:16:29;;;;;;;17.67;15.75;;;20.50;99.90;;;;;;5120404;27;20442;-83
2022/08/26 05:18:54;;;;;;;20.50;16.70;;;20.50;99.90;;;;;;5101914;27;20038;-79
2022/08/26 05:21:23;;;;;;;22.08;15.77;;;20.60;99.90;;;;;;5105902;27;20061;-81
2022/08/26 05:23:50;;;;;;;22.00;16.40;;;20.60;99.90;;;;;;5109530;27;20042;-80
2022/08/26 05:26:17;;;;;;;18.15;15.18;;;20.60;99.90;;;;;;5116566;27;20073;-80
2022/08/26 05:28:43;;;;;;;19.25;15.70;;;20.60;99.90;;;;;;5117338;27;20047;-80
2022/08/26 05:31:15;;;;;;;18.30;14.45;;;20.60;99.90;;;;;;5098665;27;20076;-80
2022/08/26 05:33:42;;;;;;;18.83;14.45;;;20.50;99.90;;;;;;5104244;27;20103;-80
2022/08/26 05:36:10;;;;;;;17.35;12.60;;;20.50;99.90;;;;;;5100836;27;20043;-81
2022/08/26 05:38:36;;;;;;;15.98;12.25;;;20.50;99.90;;;;;;5113548;27;20728;-81
2022/08/26 05:41:02;;;;;;;18.65;13.63;;;20.60;99.90;;;;;;5079275;27;20126;-80
2022/08/26 05:43:28;;;;;;;19.10;12.27;;;20.50;99.90;;;;;;5110176;27;20170;-81
2022/08/26 05:45:56;;;;;;;18.42;13.23;;;20.60;99.90;;;;;;5081235;27;20035;-81
2022/08/26 05:48:22;;;;;;;19.48;12.57;;;20.60;99.90;;;;;;5106734;27;20390;-80
2022/08/26 05:50:50;;;;;;;21.60;11.85;;;20.60;99.90;;;;;;5093065;27;20137;-81
2022/08/26 05:53:18;;;;;;;18.40;11.32;;;20.60;99.90;;;;;;5093633;27;20039;-80
2022/08/26 05:55:47;;;;;;;18.75;11.48;;;20.60;99.90;;;;;;5112948;27;20069;-80
2022/08/26 05:58:13;;;;;;;20.13;11.48;;;20.60;99.90;;;;;;5112858;27;20387;-81
2022/08/26 06:00:40;;;;;;;18.13;11.45;;;20.60;99.90;;;;;;5118391;27;20127;-80
2022/08/26 06:03:07;;;;;;;19.90;11.30;;;20.60;99.90;;;;;;5113637;27;20043;-80
2022/08/26 06:05:40;;;;;;;15.43;11.07;;;20.60;99.90;;;;;;5085823;27;20796;-80
2022/08/26 06:08:14;;;;;;;18.15;12.20;;;20.60;99.90;;;;;;5103100;27;20039;-80
2022/08/26 06:10:52;;;;;;;21.13;10.68;;;20.60;99.90;;;;;;5113588;27;20098;-80
2022/08/26 06:13:20;;;;;;;18.13;10.77;;;20.60;99.90;;;;;;5098424;27;20055;-80
2022/08/26 06:15:48;;;;;;;18.58;11.23;;;20.60;99.90;;;;;;5098363;27;20052;-80
2022/08/26 06:18:16;;;;;;;19.83;11.70;;;20.60;99.90;;;;;;5097304;27;20043;-80
2022/08/26 06:20:45;;;;;;;18.58;11.25;;;20.70;99.90;;;;;;5098486;27;20130;-81
2022/08/26 06:25:58;;;;;;;17.20;10.30;;;20.70;99.90;;;;;;5115359;27;20050;-78
2022/08/26 06:28:25;;;;;;;19.05;10.68;;;20.70;99.90;;;;;;5114829;27;20055;-80
2022/08/26 06:30:53;;;;;;;17.13;10.10;;;20.70;99.90;;;;;;5077406;27;20050;-78
2022/08/26 06:33:20;;;;;;;21.33;9.93;;;20.70;99.90;;;;;;5113388;27;20523;-80
2022/08/26 06:35:46;;;;;;;15.57;9.10;;;20.70;99.90;;;;;;5088896;27;20047;-81
2022/08/26 06:38:13;;;;;;;14.75;9.05;;;20.80;99.90;;;;;;5111540;27;20078;-79
2022/08/26 06:40:48;;;;;;;17.33;9.98;;;20.80;99.90;;;;;;5095706;27;20481;-80
2022/08/26 06:43:19;;;;;;;18.05;8.95;;;20.90;99.90;;;;;;5112389;27;20047;-79
2022/08/26 06:45:45;;;;;;;18.70;9.63;;;20.90;99.90;;;;;;5097867;27;20046;-81
2022/08/26 06:48:17;;;;;;;16.40;8.95;;;20.80;99.90;;;;;;5112685;27;20055;-81
2022/08/26 06:50:42;;;;;;;16.60;9.85;;;20.90;99.90;;;;;;5092814;27;20044;-80
2022/08/26 06:53:09;;;;;;;15.70;9.20;;;20.90;99.90;;;;;;5080021;28;20393;-80
2022/08/26 06:55:40;;;;;;;17.90;9.52;;;20.90;99.90;;;;;;5094702;27;20055;-80
2022/08/26 06:58:08;;;;;;;16.83;9.55;;;20.90;99.90;;;;;;5117762;27;20172;-80
2022/08/26 07:00:35;;;;;;;16.05;9.07;;;20.80;99.90;;;;;;5097098;28;20043;-80
2022/08/26 07:03:02;;;;;;;16.10;9.02;;;20.90;99.90;;;;;;5102147;27;20130;-81
2022/08/26 07:05:28;;;;;;;20.25;8.30;;;20.90;99.90;;;;;;5102759;27;20042;-81
2022/08/26 07:07:56;;;;;;;17.45;8.45;;;20.90;99.90;;;;;;5083886;27;20035;-81
2022/08/26 07:10:22;;;;;;;16.40;8.45;;;20.90;99.90;;;;;;5096220;27;20790;-80
2022/08/26 07:12:48;;;;;;;14.40;8.20;;;20.90;99.90;;;;;;5093005;28;20719;-80
2022/08/26 07:15:14;;;;;;;17.27;8.00;;;20.90;99.90;;;;;;5088698;27;20041;-80
2022/08/26 07:17:43;;;;;;;16.17;7.22;;;20.90;99.90;;;;;;5099048;27;20035;-80
2022/08/26 07:20:10;;;;;;;17.92;7.38;;;21.00;99.90;;;;;;5095953;27;20039;-80
2022/08/26 07:22:38;;;;;;;15.57;6.95;;;21.00;99.90;;;;;;5118998;27;20058;-81
2022/08/26 07:25:08;;;;;;;14.95;7.07;;;21.00;99.90;;;;;;5102243;27;20039;-82
2022/08/26 07:27:36;;;;;;;16.42;6.80;;;21.10;99.90;;;;;;5098225;28;20127;-80
2022/08/26 07:30:05;;;;;;;13.93;6.43;;;21.10;99.90;;;;;;5089394;27;20040;-80
2022/08/26 07:32:33;;;;;;;16.67;6.45;;;21.10;99.90;;;;;;5108683;27;20138;-80
2022/08/26 07:34:59;;;;;;;14.48;6.38;;;21.10;99.90;;;;;;5115817;27;20048;-80
2022/08/26 07:37:25;;;;;;;13.77;5.60;;;21.00;99.90;;;;;;5100464;27;20406;-78
2022/08/26 07:39:51;;;;;;;12.70;5.28;;;21.00;99.90;;;;;;5074394;28;20101;-80
2022/08/26 07:42:19;;;;;;;19.05;6.97;;;21.00;99.90;;;;;;5074337;27;20501;-81
2022/08/26 07:44:45;;;;;;;16.02;5.85;;;20.90;99.90;;;;;;5116741;27;20123;-80
2022/08/26 07:47:12;;;;;;;13.15;5.47;;;20.90;99.90;;;;;;5106849;27;20045;-80
2022/08/26 07:49:38;;;;;;;15.60;6.15;;;20.90;99.90;;;;;;5097144;28;20043;-80
2022/08/26 07:52:04;;;;;;;13.57;5.65;;;20.90;99.90;;;;;;5086243;28;20114;-81
2022/08/26 07:54:31;;;;;;;14.38;5.80;;;20.90;99.90;;;;;;5097199;28;20154;-80
2022/08/26 07:56:57;;;;;;;12.40;5.18;;;20.80;99.90;;;;;;5079634;28;20171;-80
2022/08/26 07:59:23;;;;;;;10.50;4.95;;;20.90;99.90;;;;;;5114333;27;20039;-80
2022/08/26 08:01:50;;;;;;;12.18;4.97;;;20.90;99.90;;;;;;5093581;27;20157;-81
2022/08/26 08:04:18;;;;;;;10.90;4.88;;;20.90;99.90;;;;;;5099333;27;20112;-80
2022/08/26 08:06:44;;;;;;;16.20;5.82;;;20.90;99.90;;;;;;5096525;28;20118;-79
2022/08/26 08:09:14;;;;;;;12.88;4.70;;;20.90;99.90;;;;;;5094453;28;20048;-79
2022/08/26 08:11:40;;;;;;;9.90;4.30;;;20.90;99.90;;;;;;5111382;28;20174;-79
2022/08/26 08:14:07;;;;;;;10.75;4.18;;;20.90;99.90;;;;;;5098159;28;20039;-80
2022/08/26 08:16:39;;;;;;;12.38;3.65;;;20.90;99.90;;;;;;5096212;28;20497;-80
2022/08/26 08:19:05;;;;;;;10.77;3.70;;;20.90;99.90;;;;;;5088659;28;20173;-80
2022/08/26 08:21:32;;;;;;;11.88;3.35;;;20.90;99.90;;;;;;5123061;28;20100;-81
2022/08/26 08:23:57;;;;;;;13.63;3.72;;;20.90;99.90;;;;;;5111594;28;20043;-80
2022/08/26 08:26:25;;;;;;;9.38;2.88;;;20.90;99.90;;;;;;5090874;28;20040;-80
2022/08/26 08:28:53;;;;;;;10.32;3.35;;;20.90;99.90;;;;;;5103033;28;20113;-80
2022/08/26 08:31:28;;;;;;;12.25;3.53;;;20.90;99.90;;;;;;5114255;28;20104;-80
2022/08/26 08:33:55;;;;;;;10.07;3.28;;;20.90;99.90;;;;;;5101722;28;20051;-80
2022/08/26 08:36:21;;;;;;;12.15;3.85;;;20.90;99.90;;;;;;5096715;28;20045;-81
2022/08/26 08:38:47;;;;;;;13.57;3.88;;;20.90;99.90;;;;;;5114923;27;20154;-80
2022/08/26 08:41:28;;;;;;;12.52;3.63;;;20.90;99.90;;;;;;5115570;27;20082;-82
2022/08/26 08:43:55;;;;;;;12.30;3.03;;;20.90;99.90;;;;;;5098918;27;21710;-81
2022/08/26 08:46:21;;;;;;;13.00;3.38;;;20.90;99.90;;;;;;5097631;27;20118;-81
2022/08/26 08:48:55;;;;;;;10.27;2.67;;;20.90;99.90;;;;;;5099549;27;20530;-80
2022/08/26 08:52:01;;;;;;;14.77;2.65;;;20.90;99.90;;;;;;5096466;27;20035;-82
2022/08/26 08:54:29;;;;;;;9.93;2.67;;;20.90;99.90;;;;;;5078180;27;20039;-80
2022/08/26 08:57:05;;;;;;;6.72;1.95;;;20.90;99.90;;;;;;5131305;27;20043;-80
2022/08/26 08:59:34;;;;;;;9.80;2.08;;;20.90;99.90;;;;;;5114495;27;20069;-79
2022/08/26 09:02:21;;;;;;;9.73;2.00;;;20.80;99.90;;;;;;5094562;27;21562;-81
2022/08/26 09:04:55;;;;;;;8.35;2.10;;;20.90;99.90;;;;;;5096643;27;20046;-80
2022/08/26 09:07:26;;;;;;;9.38;2.00;;;20.80;99.90;;;;;;5115284;27;20039;-81
2022/08/26 09:09:59;;;;;;;12.25;1.92;;;20.90;99.90;;;;;;5099576;27;20118;-80
2022/08/26 09:12:29;;;;;;;7.20;2.30;;;20.90;99.90;;;;;;5113802;27;20143;-80
2022/08/26 09:15:15;;;;;;;9.98;2.40;;;20.90;99.90;;;;;;5102228;27;20050;-78
2022/08/26 09:18:00;;;;;;;9.95;2.35;;;21.00;99.90;;;;;;5098232;27;20047;-80
2022/08/26 09:20:47;;;;;;;7.57;1.73;;;21.00;99.90;;;;;;5096832;27;20159;-80
2022/08/26 09:23:13;;;;;;;10.55;2.03;;;21.00;99.90;;;;;;5105209;27;20043;-80
2022/08/26 09:26:14;;;;;;;8.35;2.10;;;21.10;99.90;;;;;;5120224;27;20095;-80
2022/08/26 09:28:46;;;;;;;10.75;2.00;;;21.20;99.90;;;;;;5105075;27;20092;-81
2022/08/26 09:31:14;;;;;;;10.45;2.10;;;21.20;99.90;;;;;;5105270;27;20049;-80
2022/08/26 09:33:40;;;;;;;9.23;2.55;;;21.30;99.90;;;;;;5122568;27;20047;-81
2022/08/26 09:36:21;;;;;;;8.73;1.80;;;21.40;99.90;;;;;;5085857;27;20037;-80
2022/08/26 09:38:49;;;;;;;11.32;2.55;;;21.30;99.90;;;;;;5117331;27;20542;-81
2022/08/26 09:41:30;;;;;;;8.07;1.90;;;21.40;99.90;;;;;;5122565;27;20031;-81
2022/08/26 09:44:13;;;;;;;9.07;2.97;;;21.40;99.90;;;;;;5106315;27;20525;-81
2022/08/26 09:46:51;;;;;;;6.47;1.60;;;21.40;99.90;;;;;;5102261;27;20550;-81
2022/08/26 09:49:22;;;;;;;9.10;2.30;;;21.40;99.90;;;;;;5123195;27;20100;-81
2022/08/26 09:52:01;;;;;;;9.65;2.33;;;21.30;99.90;;;;;;5121775;27;20138;-80
2022/08/26 09:54:27;;;;;;;8.70;2.30;;;21.30;99.90;;;;;;5119582;27;20509;-79
2022/08/26 09:57:11;;;;;;;7.75;2.10;;;21.30;99.90;;;;;;5101753;27;20047;-80
2022/08/26 09:59:37;;;;;;;7.80;1.98;;;21.30;99.90;;;;;;5117139;27;20043;-81
2022/08/26 10:02:30;;;;;;;10.95;2.60;;;21.30;99.90;;;;;;5094880;27;20113;-81
2022/08/26 10:04:58;;;;;;;8.00;2.40;;;21.30;99.90;;;;;;5119030;27;20778;-82
2022/08/26 10:07:53;;;;;;;10.10;2.53;;;21.30;99.90;;;;;;5121827;27;20493;-81
2022/08/26 10:10:29;;;;;;;8.57;2.28;;;21.30;99.90;;;;;;5105650;27;20059;-80
2022/08/26 10:13:11;;;;;;;9.27;2.30;;;21.30;99.90;;;;;;5103524;27;20039;-82
2022/08/26 10:15:59;;;;;;;8.77;2.03;;;21.30;99.90;;;;;;5124347;27;20580;-81
2022/08/26 10:18:40;;;;;;;10.05;2.33;;;21.30;99.90;;;;;;5118431;27;20047;-80
2022/08/26 10:21:21;;;;;;;9.82;2.10;;;21.30;99.90;;;;;;5115523;27;20047;-81
2022/08/26 10:23:52;;;;;;;11.68;2.38;;;21.40;99.90;;;;;;5102215;27;20051;-81
2022/08/26 10:26:44;;;;;;;9.15;2.22;;;21.40;99.90;;;;;;5122835;27;20434;-81
2022/08/26 10:29:24;;;;;;;8.75;1.95;;;21.50;99.90;;;;;;5116257;27;20051;-81
2022/08/26 10:32:03;;;;;;;;;;;21.50;99.90;;;;;;5109379;27;20043;-80
2022/08/26 10:34:31;;;;;;;10.02;2.28;;;21.50;99.90;;;;;;5102985;27;19919;-81
2022/08/26 10:36:59;;;;;;;7.72;2.55;;;21.50;99.90;;;;;;5116817;27;20050;-79
2022/08/26 10:39:35;;;;;;;8.18;2.40;;;21.50;99.90;;;;;;5115697;27;20055;-82
2022/08/26 10:42:16;;;;;;;10.13;3.03;;;21.50;99.90;;;;;;5092995;27;20539;-80
2022/08/26 10:44:44;;;;;;;8.70;2.58;;;21.50;99.90;;;;;;5099190;27;20044;-80
2022/08/26 10:47:39;;;;;;;9.52;2.58;;;21.50;99.90;;;;;;5086784;28;20036;-80
2022/08/26 10:50:05;;;;;;;9.98;2.75;;;21.50;99.90;;;;;;5118530;27;20116;-81
2022/08/26 10:52:54;;;;;;;10.40;2.75;;;21.50;99.90;;;;;;5103008;27;20044;-80
2022/08/26 10:55:49;;;;;;;8.88;2.47;;;21.60;99.90;;;;;;5116573;27;20047;-81
2022/08/26 10:58:30;;;;;;;8.40;2.47;;;21.50;99.90;;;;;;5122236;27;20051;-81
2022/08/26 11:04:18;;;;;;;8.32;2.42;;;21.50;99.90;;;;;;5113808;27;20035;-78
2022/08/26 11:06:44;;;;;;;9.85;3.20;;;21.40;99.90;;;;;;5103153;27;20062;-80
2022/08/26 11:09:32;;;;;;;11.07;2.70;;;21.30;99.90;;;;;;5063241;28;20070;-79
2022/08/26 11:11:58;;;;;;;8.80;2.67;;;21.30;99.90;;;;;;5109618;27;20051;-79
2022/08/26 11:14:31;;;;;;;9.90;2.78;;;21.20;99.90;;;;;;5090268;27;20715;-79
2022/08/26 11:16:59;;;;;;;12.73;2.85;;;21.10;99.90;;;;;;5111096;27;20061;-79
2022/08/26 11:19:40;;;;;;;9.93;2.42;;;21.20;99.90;;;;;;5101094;27;20055;-79
2022/08/26 11:22:31;;;;;;;7.88;2.25;;;21.10;99.90;;;;;;5118279;27;20051;-79
2022/08/26 11:24:57;;;;;;;8.80;1.92;;;21.10;99.90;;;;;;5110518;27;20046;-78
2022/08/26 11:27:38;;;;;;;8.30;2.22;;;21.20;99.90;;;;;;5098869;27;20130;-79
2022/08/26 11:30:12;;;;;;;12.27;2.55;;;21.10;99.90;;;;;;5099554;27;20118;-79
2022/08/26 11:32:38;;;;;;;8.65;2.20;;;21.10;99.90;;;;;;5081827;27;20066;-80
2022/08/26 11:35:18;;;;;;;10.98;2.10;;;21.10;99.90;;;;;;5097346;27;20513;-79
2022/08/26 11:37:47;;;;;;;12.70;2.33;;;21.10;99.90;;;;;;5094142;28;20039;-79
2022/08/26 11:40:30;;;;;;;8.43;1.85;;;21.20;99.90;;;;;;5097389;27;20551;-80
2022/08/26 11:43:01;;;;;;;9.82;2.90;;;21.20;99.90;;;;;;5095587;27;20063;-80
2022/08/26 11:45:36;;;;;;;10.85;4.10;;;21.30;99.90;;;;;;5113420;27;20043;-80
2022/08/26 11:48:41;;;;;;;11.68;3.10;;;21.30;99.90;;;;;;5092520;27;20051;-80
2022/08/26 11:51:21;;;;;;;9.68;2.67;;;21.30;99.90;;;;;;5021549;28;20040;-80
2022/08/26 11:53:47;;;;;;;9.15;2.28;;;21.30;99.90;;;;;;5042675;28;20044;-80
2022/08/26 11:56:26;;;;;;;12.10;2.40;;;21.20;99.90;;;;;;5066515;27;20055;-80
2022/08/26 11:59:14;;;;;;;9.18;2.20;;;21.20;99.90;;;;;;5106625;27;20046;-79
2022/08/26 12:01:47;;;;;;;9.57;2.72;;;21.00;99.90;;;;;;5108719;27;20039;-80
2022/08/26 12:04:27;;;;;;;10.13;2.25;;;21.00;99.90;;;;;;5098162;28;20058;-80
2022/08/26 12:06:54;;;;;;;6.30;1.73;;;21.00;99.90;;;;;;5089285;27;20123;-80
2022/08/26 12:09:33;;;;;;;9.55;1.80;;;20.90;99.90;;;;;;5090831;28;20130;-79
2022/08/26 12:12:17;;;;;;;10.57;2.80;;;21.00;99.90;;;;;;5095938;28;20044;-80
2022/08/26 12:14:43;;;;;;;16.38;2.60;;;20.90;99.90;;;;;;5097217;28;20035;-82
2022/08/26 12:17:26;;;;;;;11.52;2.63;;;20.90;99.90;;;;;;5085802;28;20039;-80
2022/08/26 12:19:52;;;;;;;12.85;3.05;;;20.90;99.90;;;;;;5103812;28;20061;-85
2022/08/26 12:22:30;;;;;;;14.10;2.95;;;20.90;99.90;;;;;;5090445;28;20048;-83
2022/08/26 12:25:06;;;;;;;9.10;2.40;;;20.80;99.90;;;;;;5117807;27;20043;-84
2022/08/26 12:27:44;;;;;;;12.35;3.17;;;20.70;99.90;;;;;;5102228;28;20039;-83
2022/08/26 12:30:15;;;;;;;10.38;3.20;;;20.60;99.90;;;;;;5099366;28;20039;-83
2022/08/26 12:32:44;;;;;;;11.93;3.00;;;20.50;99.90;;;;;;5097693;28;20043;-82
2022/08/26 12:35:12;;;;;;;9.10;2.30;;;20.50;99.90;;;;;;5094949;28;20373;-81
2022/08/26 12:37:41;;;;;;;7.85;2.65;;;20.40;99.90;;;;;;5093692;28;20047;-81
2022/08/26 12:40:26;;;;;;;7.35;2.10;;;20.40;99.90;;;;;;5113259;28;20046;-81
2022/08/26 12:42:52;;;;;;;5.90;2.22;;;20.30;99.90;;;;;;5112883;28;20051;-83
2022/08/26 12:45:33;;;;;;;7.60;2.60;;;20.30;99.90;;;;;;5110914;28;20357;-81
2022/08/26 12:48:04;;;;;;;10.38;3.42;;;20.40;99.90;;;;;;5093512;28;20116;-80
2022/08/26 12:50:33;;;;;;;6.32;2.85;;;20.40;99.90;;;;;;5117232;27;20047;-81
2022/08/26 12:53:07;;;;;;;8.43;3.10;;;20.40;99.90;;;;;;5093978;28;20114;-78
2022/08/26 12:55:48;;;;;;;8.50;2.22;;;20.40;99.90;;;;;;5108991;28;20524;-80